sensor_id;sensor_type;location;lat;lon;timestamp;temperature;humidity
29729;DHT22;20055;51.498;11.960;2023-08-31T00:01:11;15.20;99.90
29729;DHT22;20055;51.498;11.960;2023-08-31T00:03:37;15.20;99.90
29729;DHT22;20055;51.498;11.960;2023-08-31T00:06:04;15.10;99.90
29729;DHT22;20055;51.498;11.960;2023-08-31T00:08:34;15.10;99.90
29729;DHT22;20055;51.498;11.960;2023-08-31T00:11:00;15.10;99.90
29729;DHT22;20055;51.498;11.960;2023-08-31T00:13:27;15.20;99.90
29729;DHT22;20055;51.498;11.960;2023-08-31T00:15:55;15.20;99.90
29729;DHT22;20055;51.498;11.960;2023-08-31T00:18:23;15.10;99.90
29729;DHT22;20055;51.498;11.960;2023-08-31T00:20:52;15.00;99.90
29729;DHT22;20055;51.498;11.960;2023-08-31T00:23:19;15.00;99.90
29729;DHT22;20055;51.498;11.960;2023-08-31T00:25:46;15.00;99.90
29729;DHT22;20055;51.498;11.960;2023-08-31T00:28:15;15.00;99.90
29729;DHT22;20055;51.498;11.960;2023-08-31T00:30:42;14.90;99.90
29729;DHT22;20055;51.498;11.960;2023-08-31T00:33:11;14.70;99.90
29729;DHT22;20055;51.498;11.960;2023-08-31T00:35:38;14.80;99.90
29729;DHT22;20055;51.498;11.960;2023-08-31T00:38:04;14.80;99.90
29729;DHT22;20055;51.498;11.960;2023-08-31T00:40:30;14.80;99.90
29729;DHT22;20055;51.498;11.960;2023-08-31T00:42:57;14.80;99.90
29729;DHT22;20055;51.498;11.960;2023-08-31T00:45:23;14.80;99.90
29729;DHT22;20055;51.498;11.960;2023-08-31T00:47:50;14.80;99.90
29729;DHT22;20055;51.498;11.960;2023-08-31T00:50:16;14.80;99.90
29729;DHT22;20055;51.498;11.960;2023-08-31T00:52:43;14.80;99.90
29729;DHT22;20055;51.498;11.960;2023-08-31T00:55:10;14.80;99.90
29729;DHT22;20055;51.498;11.960;2023-08-31T00:57:37;14.80;99.90
29729;DHT22;20055;51.498;11.960;2023-08-31T01:00:04;14.90;99.90
29729;DHT22;20055;51.498;11.960;2023-08-31T01:06:02;14.80;99.90
29729;DHT22;20055;51.498;11.960;2023-08-31T01:08:41;14.80;99.90
29729;DHT22;20055;51.498;11.960;2023-08-31T01:14:19;14.80;99.90
29729;DHT22;20055;51.498;11.960;2023-08-31T01:16:48;14.80;99.90
29729;DHT22;20055;51.498;11.960;2023-08-31T01:22:15;14.70;99.90
29729;DHT22;20055;51.498;11.960;2023-08-31T01:24:43;14.70;99.90
29729;DHT22;20055;51.498;11.960;2023-08-31T01:27:10;14.60;99.90
29729;DHT22;20055;51.498;11.960;2023-08-31T01:29:36;14.50;99.90
29729;DHT22;20055;51.498;11.960;2023-08-31T01:32:05;14.50;99.90
29729;DHT22;20055;51.498;11.960;2023-08-31T01:34:33;14.50;99.90
29729;DHT22;20055;51.498;11.960;2023-08-31T01:37:04;14.50;99.90
29729;DHT22;20055;51.498;11.960;2023-08-31T01:42:08;14.60;99.90
29729;DHT22;20055;51.498;11.960;2023-08-31T01:44:37;14.50;99.90
29729;DHT22;20055;51.498;11.960;2023-08-31T01:47:06;14.50;99.90
29729;DHT22;20055;51.498;11.960;2023-08-31T01:49:39;14.50;99.90
29729;DHT22;20055;51.498;11.960;2023-08-31T01:52:06;14.50;99.90
29729;DHT22;20055;51.498;11.960;2023-08-31T01:54:33;14.50;99.90
29729;DHT22;20055;51.498;11.960;2023-08-31T01:57:00;14.50;99.90
29729;DHT22;20055;51.498;11.960;2023-08-31T01:59:26;14.40;99.90
29729;DHT22;20055;51.498;11.960;2023-08-31T02:01:53;14.40;99.90
29729;DHT22;20055;51.498;11.960;2023-08-31T02:04:20;14.40;99.90
29729;DHT22;20055;51.498;11.960;2023-08-31T02:06:46;14.40;99.90
29729;DHT22;20055;51.498;11.960;2023-08-31T02:09:13;14.30;99.90
29729;DHT22;20055;51.498;11.960;2023-08-31T02:11:40;14.20;99.90
29729;DHT22;20055;51.498;11.960;2023-08-31T02:14:06;14.30;99.90
29729;DHT22;20055;51.498;11.960;2023-08-31T02:16:34;14.30;99.90
29729;DHT22;20055;51.498;11.960;2023-08-31T02:19:00;14.30;99.90
29729;DHT22;20055;51.498;11.960;2023-08-31T02:21:26;14.30;99.90
29729;DHT22;20055;51.498;11.960;2023-08-31T02:23:53;14.30;99.90
29729;DHT22;20055;51.498;11.960;2023-08-31T02:26:21;14.30;99.90
29729;DHT22;20055;51.498;11.960;2023-08-31T02:28:47;14.30;99.90
29729;DHT22;20055;51.498;11.960;2023-08-31T02:31:14;14.20;99.90
29729;DHT22;20055;51.498;11.960;2023-08-31T02:33:40;14.30;99.90
29729;DHT22;20055;51.498;11.960;2023-08-31T02:36:06;14.20;99.90
29729;DHT22;20055;51.498;11.960;2023-08-31T02:38:33;14.20;99.90
29729;DHT22;20055;51.498;11.960;2023-08-31T02:40:59;14.20;99.90
29729;DHT22;20055;51.498;11.960;2023-08-31T02:43:25;14.20;99.90
29729;DHT22;20055;51.498;11.960;2023-08-31T02:46:01;14.20;99.90
29729;DHT22;20055;51.498;11.960;2023-08-31T02:48:28;14.20;99.90
29729;DHT22;20055;51.498;11.960;2023-08-31T02:50:59;14.30;99.90
29729;DHT22;20055;51.498;11.960;2023-08-31T02:53:27;14.30;99.90
29729;DHT22;20055;51.498;11.960;2023-08-31T02:55:54;14.30;99.90
29729;DHT22;20055;51.498;11.960;2023-08-31T02:58:20;14.40;99.90
29729;DHT22;20055;51.498;11.960;2023-08-31T03:00:46;14.30;99.90
29729;DHT22;20055;51.498;11.960;2023-08-31T03:03:16;14.40;99.90
29729;DHT22;20055;51.498;11.960;2023-08-31T03:05:42;14.40;99.90
29729;DHT22;20055;51.498;11.960;2023-08-31T03:08:08;14.30;99.90
29729;DHT22;20055;51.498;11.960;2023-08-31T03:10:35;14.30;99.90
29729;DHT22;20055;51.498;11.960;2023-08-31T03:13:02;14.40;99.90
29729;DHT22;20055;51.498;11.960;2023-08-31T03:15:29;14.40;99.90
29729;DHT22;20055;51.498;11.960;2023-08-31T03:17:55;14.40;99.90
29729;DHT22;20055;51.498;11.960;2023-08-31T03:20:21;14.40;99.90
29729;DHT22;20055;51.498;11.960;2023-08-31T03:22:47;14.50;99.90
29729;DHT22;20055;51.498;11.960;2023-08-31T03:25:14;14.50;99.90
29729;DHT22;20055;51.498;11.960;2023-08-31T03:27:40;14.40;99.90
29729;DHT22;20055;51.498;11.960;2023-08-31T03:30:08;14.40;99.90
29729;DHT22;20055;51.498;11.960;2023-08-31T03:32:34;14.40;99.90
29729;DHT22;20055;51.498;11.960;2023-08-31T03:35:02;14.40;99.90
29729;DHT22;20055;51.498;11.960;2023-08-31T03:37:29;14.60;99.90
29729;DHT22;20055;51.498;11.960;2023-08-31T03:39:56;15.40;99.90
29729;DHT22;20055;51.498;11.960;2023-08-31T03:42:22;15.80;99.90
29729;DHT22;20055;51.498;11.960;2023-08-31T03:44:48;15.80;99.90
29729;DHT22;20055;51.498;11.960;2023-08-31T03:47:16;15.60;99.90
29729;DHT22;20055;51.498;11.960;2023-08-31T03:49:42;15.40;99.90
29729;DHT22;20055;51.498;11.960;2023-08-31T03:52:08;15.20;99.90
29729;DHT22;20055;51.498;11.960;2023-08-31T03:54:35;15.00;99.90
29729;DHT22;20055;51.498;11.960;2023-08-31T03:57:02;14.90;99.90
29729;DHT22;20055;51.498;11.960;2023-08-31T03:59:28;14.80;99.90
29729;DHT22;20055;51.498;11.960;2023-08-31T04:01:55;14.70;99.90
29729;DHT22;20055;51.498;11.960;2023-08-31T04:04:21;14.60;99.90
29729;DHT22;20055;51.498;11.960;2023-08-31T04:06:47;14.50;99.90
29729;DHT22;20055;51.498;11.960;2023-08-31T04:09:13;14.50;99.90
29729;DHT22;20055;51.498;11.960;2023-08-31T04:11:40;14.40;99.90
29729;DHT22;20055;51.498;11.960;2023-08-31T04:14:06;14.40;99.90
29729;DHT22;20055;51.498;11.960;2023-08-31T04:16:32;14.40;99.90
29729;DHT22;20055;51.498;11.960;2023-08-31T04:18:58;14.50;99.90
29729;DHT22;20055;51.498;11.960;2023-08-31T04:21:25;14.50;99.90
29729;DHT22;20055;51.498;11.960;2023-08-31T04:23:51;14.40;99.90
29729;DHT22;20055;51.498;11.960;2023-08-31T04:26:17;14.40;99.90
29729;DHT22;20055;51.498;11.960;2023-08-31T04:28:44;14.40;99.90
29729;DHT22;20055;51.498;11.960;2023-08-31T04:31:10;14.40;99.90
29729;DHT22;20055;51.498;11.960;2023-08-31T04:33:37;14.30;99.90
29729;DHT22;20055;51.498;11.960;2023-08-31T04:36:04;14.50;99.90
29729;DHT22;20055;51.498;11.960;2023-08-31T04:38:31;14.40;99.90
29729;DHT22;20055;51.498;11.960;2023-08-31T04:40:58;14.40;99.90
29729;DHT22;20055;51.498;11.960;2023-08-31T04:43:25;14.40;99.90
29729;DHT22;20055;51.498;11.960;2023-08-31T04:45:53;14.30;99.90
29729;DHT22;20055;51.498;11.960;2023-08-31T04:48:19;14.40;99.90
29729;DHT22;20055;51.498;11.960;2023-08-31T04:50:46;14.50;99.90
29729;DHT22;20055;51.498;11.960;2023-08-31T04:53:12;14.40;99.90
29729;DHT22;20055;51.498;11.960;2023-08-31T04:55:39;14.40;99.90
29729;DHT22;20055;51.498;11.960;2023-08-31T04:58:05;14.30;99.90
29729;DHT22;20055;51.498;11.960;2023-08-31T05:00:31;14.40;99.90
29729;DHT22;20055;51.498;11.960;2023-08-31T05:02:57;14.30;99.90
29729;DHT22;20055;51.498;11.960;2023-08-31T05:05:24;14.40;99.90
29729;DHT22;20055;51.498;11.960;2023-08-31T05:07:50;14.60;99.90
29729;DHT22;20055;51.498;11.960;2023-08-31T05:10:16;14.60;99.90
29729;DHT22;20055;51.498;11.960;2023-08-31T05:12:42;14.50;99.90
29729;DHT22;20055;51.498;11.960;2023-08-31T05:15:09;14.50;99.90
29729;DHT22;20055;51.498;11.960;2023-08-31T05:17:35;14.50;99.90
29729;DHT22;20055;51.498;11.960;2023-08-31T05:20:01;14.50;99.90
29729;DHT22;20055;51.498;11.960;2023-08-31T05:22:30;14.60;99.90
29729;DHT22;20055;51.498;11.960;2023-08-31T05:24:56;14.60;99.90
29729;DHT22;20055;51.498;11.960;2023-08-31T05:27:22;14.60;99.90
29729;DHT22;20055;51.498;11.960;2023-08-31T05:29:48;14.80;99.90
29729;DHT22;20055;51.498;11.960;2023-08-31T05:32:15;14.80;99.90
29729;DHT22;20055;51.498;11.960;2023-08-31T05:34:41;14.80;99.90
29729;DHT22;20055;51.498;11.960;2023-08-31T05:37:07;14.80;99.90
29729;DHT22;20055;51.498;11.960;2023-08-31T05:39:34;14.90;99.90
29729;DHT22;20055;51.498;11.960;2023-08-31T05:42:00;15.00;99.90
29729;DHT22;20055;51.498;11.960;2023-08-31T05:44:27;15.00;99.90
29729;DHT22;20055;51.498;11.960;2023-08-31T05:46:53;15.00;99.90
29729;DHT22;20055;51.498;11.960;2023-08-31T05:49:19;15.10;99.90
29729;DHT22;20055;51.498;11.960;2023-08-31T05:51:45;15.00;99.90
29729;DHT22;20055;51.498;11.960;2023-08-31T05:54:12;15.00;99.90
29729;DHT22;20055;51.498;11.960;2023-08-31T05:56:39;15.00;99.90
29729;DHT22;20055;51.498;11.960;2023-08-31T05:59:06;14.90;99.90
29729;DHT22;20055;51.498;11.960;2023-08-31T06:01:34;14.90;99.90
29729;DHT22;20055;51.498;11.960;2023-08-31T06:04:00;14.80;99.90
29729;DHT22;20055;51.498;11.960;2023-08-31T06:06:27;14.80;99.90
29729;DHT22;20055;51.498;11.960;2023-08-31T06:08:53;14.60;99.90
29729;DHT22;20055;51.498;11.960;2023-08-31T06:11:20;14.90;99.90
29729;DHT22;20055;51.498;11.960;2023-08-31T06:13:47;15.10;99.90
29729;DHT22;20055;51.498;11.960;2023-08-31T06:16:13;15.20;99.90
29729;DHT22;20055;51.498;11.960;2023-08-31T06:18:39;15.50;99.90
29729;DHT22;20055;51.498;11.960;2023-08-31T06:21:06;15.40;99.90
29729;DHT22;20055;51.498;11.960;2023-08-31T06:23:32;15.70;99.90
29729;DHT22;20055;51.498;11.960;2023-08-31T06:25:58;15.90;99.90
29729;DHT22;20055;51.498;11.960;2023-08-31T06:28:25;16.30;99.90
29729;DHT22;20055;51.498;11.960;2023-08-31T06:30:51;16.70;99.90
29729;DHT22;20055;51.498;11.960;2023-08-31T06:33:17;17.00;99.90
29729;DHT22;20055;51.498;11.960;2023-08-31T06:35:46;17.10;99.90
29729;DHT22;20055;51.498;11.960;2023-08-31T06:38:14;17.10;99.90
29729;DHT22;20055;51.498;11.960;2023-08-31T06:40:42;17.00;99.90
29729;DHT22;20055;51.498;11.960;2023-08-31T06:43:09;17.00;99.90
29729;DHT22;20055;51.498;11.960;2023-08-31T06:45:36;16.90;99.90
29729;DHT22;20055;51.498;11.960;2023-08-31T06:48:02;17.00;99.90
29729;DHT22;20055;51.498;11.960;2023-08-31T06:50:29;17.20;99.90
29729;DHT22;20055;51.498;11.960;2023-08-31T06:52:55;17.30;99.90
29729;DHT22;20055;51.498;11.960;2023-08-31T06:55:21;17.50;99.90
29729;DHT22;20055;51.498;11.960;2023-08-31T06:57:48;17.40;99.90
29729;DHT22;20055;51.498;11.960;2023-08-31T07:00:14;17.30;99.90
29729;DHT22;20055;51.498;11.960;2023-08-31T07:02:40;17.10;99.90
29729;DHT22;20055;51.498;11.960;2023-08-31T07:05:09;16.80;99.90
29729;DHT22;20055;51.498;11.960;2023-08-31T07:07:36;17.00;99.90
29729;DHT22;20055;51.498;11.960;2023-08-31T07:10:02;17.10;99.90
29729;DHT22;20055;51.498;11.960;2023-08-31T07:12:30;16.80;99.90
29729;DHT22;20055;51.498;11.960;2023-08-31T07:14:56;16.80;99.90
29729;DHT22;20055;51.498;11.960;2023-08-31T07:17:22;17.10;99.90
29729;DHT22;20055;51.498;11.960;2023-08-31T07:19:48;17.30;99.90
29729;DHT22;20055;51.498;11.960;2023-08-31T07:22:14;17.60;99.90
29729;DHT22;20055;51.498;11.960;2023-08-31T07:24:41;17.50;99.90
29729;DHT22;20055;51.498;11.960;2023-08-31T07:27:07;17.30;99.90
29729;DHT22;20055;51.498;11.960;2023-08-31T07:29:33;17.40;99.90
29729;DHT22;20055;51.498;11.960;2023-08-31T07:31:59;17.50;99.90
29729;DHT22;20055;51.498;11.960;2023-08-31T07:34:26;17.40;99.90
29729;DHT22;20055;51.498;11.960;2023-08-31T07:36:52;17.10;99.90
29729;DHT22;20055;51.498;11.960;2023-08-31T07:39:19;16.80;99.90
29729;DHT22;20055;51.498;11.960;2023-08-31T07:41:45;17.10;99.90
29729;DHT22;20055;51.498;11.960;2023-08-31T07:44:11;17.30;99.90
29729;DHT22;20055;51.498;11.960;2023-08-31T07:46:37;17.20;99.90
29729;DHT22;20055;51.498;11.960;2023-08-31T07:49:04;17.00;99.90
29729;DHT22;20055;51.498;11.960;2023-08-31T07:51:30;17.00;99.90
29729;DHT22;20055;51.498;11.960;2023-08-31T07:53:57;17.00;99.90
29729;DHT22;20055;51.498;11.960;2023-08-31T07:56:23;17.20;99.90
29729;DHT22;20055;51.498;11.960;2023-08-31T07:58:52;17.10;99.90
29729;DHT22;20055;51.498;11.960;2023-08-31T08:01:18;17.00;99.90
29729;DHT22;20055;51.498;11.960;2023-08-31T08:03:44;17.10;99.90
29729;DHT22;20055;51.498;11.960;2023-08-31T08:06:11;17.20;99.90
29729;DHT22;20055;51.498;11.960;2023-08-31T08:08:37;17.40;99.90
29729;DHT22;20055;51.498;11.960;2023-08-31T08:11:04;17.50;99.90
29729;DHT22;20055;51.498;11.960;2023-08-31T08:13:30;17.50;99.90
29729;DHT22;20055;51.498;11.960;2023-08-31T08:15:56;17.50;99.90
29729;DHT22;20055;51.498;11.960;2023-08-31T08:18:23;17.80;99.90
29729;DHT22;20055;51.498;11.960;2023-08-31T08:20:52;17.70;99.90
29729;DHT22;20055;51.498;11.960;2023-08-31T08:23:19;17.70;99.90
29729;DHT22;20055;51.498;11.960;2023-08-31T08:25:45;17.90;99.90
29729;DHT22;20055;51.498;11.960;2023-08-31T08:28:11;17.70;99.90
29729;DHT22;20055;51.498;11.960;2023-08-31T08:30:38;17.90;99.90
29729;DHT22;20055;51.498;11.960;2023-08-31T08:33:04;17.90;99.90
29729;DHT22;20055;51.498;11.960;2023-08-31T08:35:30;17.70;99.90
29729;DHT22;20055;51.498;11.960;2023-08-31T08:37:57;17.80;99.90
29729;DHT22;20055;51.498;11.960;2023-08-31T08:40:24;17.80;99.90
29729;DHT22;20055;51.498;11.960;2023-08-31T08:42:53;18.20;99.90
29729;DHT22;20055;51.498;11.960;2023-08-31T08:45:20;18.90;99.90
29729;DHT22;20055;51.498;11.960;2023-08-31T08:47:50;19.00;99.90
29729;DHT22;20055;51.498;11.960;2023-08-31T08:50:17;19.00;99.90
29729;DHT22;20055;51.498;11.960;2023-08-31T08:52:44;19.00;99.90
29729;DHT22;20055;51.498;11.960;2023-08-31T08:55:11;19.30;99.90
29729;DHT22;20055;51.498;11.960;2023-08-31T08:57:37;19.20;99.90
29729;DHT22;20055;51.498;11.960;2023-08-31T09:00:04;19.20;99.90
29729;DHT22;20055;51.498;11.960;2023-08-31T09:02:31;19.20;99.90
29729;DHT22;20055;51.498;11.960;2023-08-31T09:04:57;19.00;99.90
29729;DHT22;20055;51.498;11.960;2023-08-31T09:07:24;19.00;99.90
29729;DHT22;20055;51.498;11.960;2023-08-31T09:09:52;19.00;99.90
29729;DHT22;20055;51.498;11.960;2023-08-31T09:12:22;18.60;99.90
29729;DHT22;20055;51.498;11.960;2023-08-31T09:15:03;18.50;99.90
29729;DHT22;20055;51.498;11.960;2023-08-31T09:17:41;18.80;99.90
29729;DHT22;20055;51.498;11.960;2023-08-31T09:20:10;19.30;99.90
29729;DHT22;20055;51.498;11.960;2023-08-31T09:22:36;19.30;99.90
29729;DHT22;20055;51.498;11.960;2023-08-31T09:25:02;19.40;99.90
29729;DHT22;20055;51.498;11.960;2023-08-31T09:27:29;19.60;99.90
29729;DHT22;20055;51.498;11.960;2023-08-31T09:29:58;19.50;99.90
29729;DHT22;20055;51.498;11.960;2023-08-31T09:32:24;19.60;99.90
29729;DHT22;20055;51.498;11.960;2023-08-31T09:34:50;19.50;99.90
29729;DHT22;20055;51.498;11.960;2023-08-31T09:37:16;19.40;99.90
29729;DHT22;20055;51.498;11.960;2023-08-31T09:39:43;19.30;99.90
29729;DHT22;20055;51.498;11.960;2023-08-31T09:42:09;19.10;99.90
29729;DHT22;20055;51.498;11.960;2023-08-31T09:44:40;18.90;99.90
29729;DHT22;20055;51.498;11.960;2023-08-31T09:47:07;19.30;99.90
29729;DHT22;20055;51.498;11.960;2023-08-31T09:49:34;19.10;99.90
29729;DHT22;20055;51.498;11.960;2023-08-31T09:52:03;18.90;99.90
29729;DHT22;20055;51.498;11.960;2023-08-31T09:54:33;19.10;99.90
29729;DHT22;20055;51.498;11.960;2023-08-31T09:57:01;19.60;99.90
29729;DHT22;20055;51.498;11.960;2023-08-31T09:59:28;19.70;99.90
29729;DHT22;20055;51.498;11.960;2023-08-31T10:01:55;20.00;99.90
29729;DHT22;20055;51.498;11.960;2023-08-31T10:04:29;20.00;99.90
29729;DHT22;20055;51.498;11.960;2023-08-31T10:06:57;19.90;99.90
29729;DHT22;20055;51.498;11.960;2023-08-31T10:09:23;19.80;99.90
29729;DHT22;20055;51.498;11.960;2023-08-31T10:11:50;19.60;99.90
29729;DHT22;20055;51.498;11.960;2023-08-31T10:14:17;19.20;99.90
29729;DHT22;20055;51.498;11.960;2023-08-31T10:16:47;18.70;99.90
29729;DHT22;20055;51.498;11.960;2023-08-31T10:19:14;18.90;99.90
29729;DHT22;20055;51.498;11.960;2023-08-31T10:21:41;19.00;99.90
29729;DHT22;20055;51.498;11.960;2023-08-31T10:24:07;19.10;99.90
29729;DHT22;20055;51.498;11.960;2023-08-31T10:26:33;19.60;99.90
29729;DHT22;20055;51.498;11.960;2023-08-31T10:29:00;19.80;99.90
29729;DHT22;20055;51.498;11.960;2023-08-31T10:31:31;19.80;99.90
29729;DHT22;20055;51.498;11.960;2023-08-31T10:34:05;19.60;99.90
29729;DHT22;20055;51.498;11.960;2023-08-31T10:36:40;19.40;99.90
29729;DHT22;20055;51.498;11.960;2023-08-31T10:39:17;19.30;99.90
29729;DHT22;20055;51.498;11.960;2023-08-31T10:41:56;19.40;99.90
29729;DHT22;20055;51.498;11.960;2023-08-31T10:44:23;19.20;99.90
29729;DHT22;20055;51.498;11.960;2023-08-31T10:46:51;18.80;99.90
29729;DHT22;20055;51.498;11.960;2023-08-31T10:49:19;18.00;99.90
29729;DHT22;20055;51.498;11.960;2023-08-31T10:51:57;17.80;99.90
29729;DHT22;20055;51.498;11.960;2023-08-31T10:54:25;17.90;99.90
29729;DHT22;20055;51.498;11.960;2023-08-31T10:59:51;18.20;99.90
29729;DHT22;20055;51.498;11.960;2023-08-31T11:05:01;18.70;99.90
29729;DHT22;20055;51.498;11.960;2023-08-31T11:07:30;18.50;99.90
29729;DHT22;20055;51.498;11.960;2023-08-31T11:12:33;19.10;99.90
29729;DHT22;20055;51.498;11.960;2023-08-31T11:14:59;19.20;99.90
29729;DHT22;20055;51.498;11.960;2023-08-31T11:17:26;19.30;99.90
29729;DHT22;20055;51.498;11.960;2023-08-31T11:19:52;19.30;99.90
29729;DHT22;20055;51.498;11.960;2023-08-31T11:22:19;19.60;99.90
29729;DHT22;20055;51.498;11.960;2023-08-31T11:24:46;19.60;99.90
29729;DHT22;20055;51.498;11.960;2023-08-31T11:27:12;19.70;99.90
29729;DHT22;20055;51.498;11.960;2023-08-31T11:29:45;19.90;99.90
29729;DHT22;20055;51.498;11.960;2023-08-31T11:32:12;20.00;99.90
29729;DHT22;20055;51.498;11.960;2023-08-31T11:34:43;20.00;99.90
29729;DHT22;20055;51.498;11.960;2023-08-31T11:37:12;20.00;99.90
29729;DHT22;20055;51.498;11.960;2023-08-31T11:39:51;19.90;99.90
29729;DHT22;20055;51.498;11.960;2023-08-31T11:42:19;19.90;99.90
29729;DHT22;20055;51.498;11.960;2023-08-31T11:44:47;19.90;99.90
29729;DHT22;20055;51.498;11.960;2023-08-31T11:47:14;20.20;99.90
29729;DHT22;20055;51.498;11.960;2023-08-31T11:49:44;20.30;99.90
29729;DHT22;20055;51.498;11.960;2023-08-31T11:52:12;20.60;99.90
29729;DHT22;20055;51.498;11.960;2023-08-31T11:54:42;20.70;99.90
29729;DHT22;20055;51.498;11.960;2023-08-31T11:57:12;20.80;99.90
29729;DHT22;20055;51.498;11.960;2023-08-31T11:59:39;20.80;99.90
29729;DHT22;20055;51.498;11.960;2023-08-31T12:02:06;20.50;99.90
29729;DHT22;20055;51.498;11.960;2023-08-31T12:04:42;20.30;99.90
29729;DHT22;20055;51.498;11.960;2023-08-31T12:07:09;20.20;99.90
29729;DHT22;20055;51.498;11.960;2023-08-31T12:09:36;20.20;99.90
29729;DHT22;20055;51.498;11.960;2023-08-31T12:12:02;20.10;99.90
29729;DHT22;20055;51.498;11.960;2023-08-31T12:14:30;20.00;99.90
29729;DHT22;20055;51.498;11.960;2023-08-31T12:17:05;19.90;99.90
29729;DHT22;20055;51.498;11.960;2023-08-31T12:19:32;20.40;99.90
29729;DHT22;20055;51.498;11.960;2023-08-31T12:21:59;20.80;99.90
29729;DHT22;20055;51.498;11.960;2023-08-31T12:24:26;21.20;99.90
29729;DHT22;20055;51.498;11.960;2023-08-31T12:26:52;21.50;99.90
29729;DHT22;20055;51.498;11.960;2023-08-31T12:29:22;21.20;99.60
29729;DHT22;20055;51.498;11.960;2023-08-31T12:31:49;20.80;99.90
29729;DHT22;20055;51.498;11.960;2023-08-31T12:34:16;20.90;99.90
29729;DHT22;20055;51.498;11.960;2023-08-31T12:36:42;20.50;99.90
29729;DHT22;20055;51.498;11.960;2023-08-31T12:39:09;20.40;99.90
29729;DHT22;20055;51.498;11.960;2023-08-31T12:41:39;20.40;99.90
29729;DHT22;20055;51.498;11.960;2023-08-31T12:44:06;20.70;99.90
29729;DHT22;20055;51.498;11.960;2023-08-31T12:46:33;20.80;99.90
29729;DHT22;20055;51.498;11.960;2023-08-31T12:49:00;20.60;99.90
29729;DHT22;20055;51.498;11.960;2023-08-31T12:51:29;20.40;99.90
29729;DHT22;20055;51.498;11.960;2023-08-31T12:53:56;20.30;99.90
29729;DHT22;20055;51.498;11.960;2023-08-31T12:56:23;20.40;99.90
29729;DHT22;20055;51.498;11.960;2023-08-31T12:58:53;20.50;99.90
29729;DHT22;20055;51.498;11.960;2023-08-31T13:01:20;20.40;99.90
29729;DHT22;20055;51.498;11.960;2023-08-31T13:03:47;20.20;99.90
29729;DHT22;20055;51.498;11.960;2023-08-31T13:06:14;19.90;99.90
29729;DHT22;20055;51.498;11.960;2023-08-31T13:08:42;20.10;99.90
29729;DHT22;20055;51.498;11.960;2023-08-31T13:11:11;20.20;99.90
29729;DHT22;20055;51.498;11.960;2023-08-31T13:13:38;20.10;99.60
29729;DHT22;20055;51.498;11.960;2023-08-31T13:16:04;20.20;99.90
29729;DHT22;20055;51.498;11.960;2023-08-31T13:18:31;20.30;99.90
29729;DHT22;20055;51.498;11.960;2023-08-31T13:20:57;20.60;99.90
29729;DHT22;20055;51.498;11.960;2023-08-31T13:23:23;21.10;99.30
29729;DHT22;20055;51.498;11.960;2023-08-31T13:25:50;20.90;99.40
29729;DHT22;20055;51.498;11.960;2023-08-31T13:28:17;20.90;99.80
29729;DHT22;20055;51.498;11.960;2023-08-31T13:30:44;20.70;99.90
29729;DHT22;20055;51.498;11.960;2023-08-31T13:33:10;20.30;99.90
29729;DHT22;20055;51.498;11.960;2023-08-31T13:35:36;20.10;99.90
29729;DHT22;20055;51.498;11.960;2023-08-31T13:38:03;19.90;99.90
29729;DHT22;20055;51.498;11.960;2023-08-31T13:40:30;20.00;99.90
29729;DHT22;20055;51.498;11.960;2023-08-31T13:43:00;19.90;99.90
29729;DHT22;20055;51.498;11.960;2023-08-31T13:45:30;19.80;99.90
29729;DHT22;20055;51.498;11.960;2023-08-31T13:48:00;19.30;99.90
29729;DHT22;20055;51.498;11.960;2023-08-31T13:50:27;18.40;99.90
29729;DHT22;20055;51.498;11.960;2023-08-31T13:52:54;17.50;99.90
29729;DHT22;20055;51.498;11.960;2023-08-31T13:55:20;17.00;99.90
29729;DHT22;20055;51.498;11.960;2023-08-31T13:57:46;16.80;99.90
29729;DHT22;20055;51.498;11.960;2023-08-31T14:00:13;16.80;99.90
29729;DHT22;20055;51.498;11.960;2023-08-31T14:02:40;16.70;99.90
29729;DHT22;20055;51.498;11.960;2023-08-31T14:05:06;16.60;99.90
29729;DHT22;20055;51.498;11.960;2023-08-31T14:07:34;16.30;99.90
29729;DHT22;20055;51.498;11.960;2023-08-31T14:10:00;15.70;99.90
29729;DHT22;20055;51.498;11.960;2023-08-31T14:12:27;15.60;99.90
29729;DHT22;20055;51.498;11.960;2023-08-31T14:14:53;15.40;99.90
29729;DHT22;20055;51.498;11.960;2023-08-31T14:17:20;15.50;99.90
29729;DHT22;20055;51.498;11.960;2023-08-31T14:19:47;15.50;99.90
29729;DHT22;20055;51.498;11.960;2023-08-31T14:22:13;15.50;99.90
29729;DHT22;20055;51.498;11.960;2023-08-31T14:24:40;15.50;99.90
29729;DHT22;20055;51.498;11.960;2023-08-31T14:27:06;15.50;99.90
29729;DHT22;20055;51.498;11.960;2023-08-31T14:29:32;15.60;99.90
29729;DHT22;20055;51.498;11.960;2023-08-31T14:32:01;15.70;99.90
29729;DHT22;20055;51.498;11.960;2023-08-31T14:34:28;15.80;99.90
29729;DHT22;20055;51.498;11.960;2023-08-31T14:36:54;16.00;99.90
29729;DHT22;20055;51.498;11.960;2023-08-31T14:39:23;16.10;99.90
29729;DHT22;20055;51.498;11.960;2023-08-31T14:41:56;16.20;99.90
29729;DHT22;20055;51.498;11.960;2023-08-31T14:44:24;16.40;99.90
29729;DHT22;20055;51.498;11.960;2023-08-31T14:46:51;16.50;99.90
29729;DHT22;20055;51.498;11.960;2023-08-31T14:49:17;16.60;99.90
29729;DHT22;20055;51.498;11.960;2023-08-31T14:51:44;16.70;99.90
29729;DHT22;20055;51.498;11.960;2023-08-31T14:54:11;16.90;99.90
29729;DHT22;20055;51.498;11.960;2023-08-31T14:56:37;17.20;99.90
29729;DHT22;20055;51.498;11.960;2023-08-31T14:59:03;17.30;99.90
29729;DHT22;20055;51.498;11.960;2023-08-31T15:01:29;17.30;99.90
29729;DHT22;20055;51.498;11.960;2023-08-31T15:03:56;17.60;99.90
29729;DHT22;20055;51.498;11.960;2023-08-31T15:06:22;17.60;99.90
29729;DHT22;20055;51.498;11.960;2023-08-31T15:08:48;17.60;99.90
29729;DHT22;20055;51.498;11.960;2023-08-31T15:11:15;17.70;99.90
29729;DHT22;20055;51.498;11.960;2023-08-31T15:13:41;17.60;99.90
29729;DHT22;20055;51.498;11.960;2023-08-31T15:16:08;17.50;99.90
29729;DHT22;20055;51.498;11.960;2023-08-31T15:18:34;17.50;99.90
29729;DHT22;20055;51.498;11.960;2023-08-31T15:21:00;17.50;99.90
29729;DHT22;20055;51.498;11.960;2023-08-31T15:23:27;17.40;99.90
29729;DHT22;20055;51.498;11.960;2023-08-31T15:25:59;17.30;99.90
29729;DHT22;20055;51.498;11.960;2023-08-31T15:28:26;17.10;99.90
29729;DHT22;20055;51.498;11.960;2023-08-31T15:30:52;17.00;99.90
29729;DHT22;20055;51.498;11.960;2023-08-31T15:33:18;17.00;99.90
29729;DHT22;20055;51.498;11.960;2023-08-31T15:35:45;16.90;99.90